X  Schlie├čen METAR Luftfahrt Wetterdaten     EDDM Munich Airport
Temperatur
11°C Temperatur
11°C Taupunkt
100% Feuchtigkeit



Wind
1 MPS
2 km/h
0 m/s
1 Ktn



250°
WSW
Aktuelle Wetterlage

Nebel Nebel
Luftdruck 1022.92 (hPa) - 30.21 (inchHg)
Sichtweite 0.3 (Meile) - 0.5 (Km)
Flughafen
Flughafen Code EDDM

Position : Munich Airport
Entfernung: 73 (mi)

Metar:
EDDM 260750Z AUTO 25001KT 0500 0300 R08L/0650D R08R/0450U FG VV002 11/11 Q1023 BECMG 3000 BCFG OVC005

Zeit: 26-09-2023 07:50 CEST